Joliett, Pennsylvania
Current Conditions -  °F | °C
As of 2:58 PM on Thursday 30 Oct 2014 (Local Time) from KMUI Reporting Station
Broken Clouds Broken Clouds  
Wind Chill: 54°   Ceiling: 5500
Heat Index: 54°   Visibility: 10mi
Dew Point: 35°   Wind: 5mph
Humidity: 47%   Direction: 10°N
Pressure: 30.01"   Gusts: NA
Location:  40.6079°N, 76.4334°W
Report Text: KMUI 301858Z AUTO 01004KT 10SM BKN055 12/01 A3001 RMK AO2 SLP167 T01240014
Loading
Personal Weather Stations






























Interactive Weather Map
Tropical Storm Tracking
New forecast layout! Learn more

10-Day Weather Forecast

Advertisements
Track Severe Weather on mobile